Time;durP1;ratioP1;P1;durP2;ratioP2;P2;SDS_P1;SDS_P2;PMS_P1;PMS_P2;Temp;Humidity;BMP_temperature;BMP_pressure;BME280_temperature;BME280_humidity;BME280_pressure;Samples;Min_cycle;Max_cycle;Signal;HPM_P1;HPM_P2
2024/01/26 00:01:27;;;;;;;10.50;10.20;;;5.70;99.90;;;;;;6233014;23;20223;-85
2024/01/26 00:03:57;;;;;;;10.57;10.27;;;5.70;99.90;;;;;;6232596;23;20191;-85
2024/01/26 00:06:26;;;;;;;10.40;10.10;;;5.70;99.90;;;;;;6232374;23;20191;-85
2024/01/26 00:08:54;;;;;;;10.00;9.70;;;5.70;99.90;;;;;;6232868;22;20215;-86
2024/01/26 00:11:21;;;;;;;10.13;9.83;;;5.70;99.90;;;;;;6232177;23;20199;-85
2024/01/26 00:13:49;;;;;;;10.30;10.00;;;5.80;99.90;;;;;;6231737;23;20198;-85
2024/01/26 00:16:16;;;;;;;10.10;9.80;;;5.80;99.90;;;;;;6232130;23;20191;-85
2024/01/26 00:18:43;;;;;;;9.93;9.63;;;5.80;99.90;;;;;;6232589;22;20211;-85
2024/01/26 00:21:12;;;;;;;10.40;10.10;;;5.80;99.90;;;;;;6232345;23;20198;-85
2024/01/26 00:23:40;;;;;;;10.10;9.80;;;5.80;99.90;;;;;;6233251;23;20187;-85
2024/01/26 00:26:07;;;;;;;10.30;10.00;;;5.70;99.90;;;;;;6234676;23;20191;-85
2024/01/26 00:28:35;;;;;;;10.27;9.97;;;5.70;99.90;;;;;;6236610;22;20219;-85
2024/01/26 00:31:02;;;;;;;10.10;9.80;;;5.70;99.90;;;;;;6237585;23;20213;-85
2024/01/26 00:33:30;;;;;;;10.20;9.90;;;5.70;99.90;;;;;;6245353;23;21017;-85
2024/01/26 00:35:57;;;;;;;10.30;10.00;;;5.70;99.90;;;;;;6245983;23;20214;-85
2024/01/26 00:38:26;;;;;;;10.40;10.10;;;5.70;99.90;;;;;;6239000;22;20245;-86
2024/01/26 00:40:53;;;;;;;10.30;10.00;;;5.70;99.90;;;;;;6232864;23;20197;-85
2024/01/26 00:43:20;;;;;;;10.40;10.10;;;5.70;99.90;;;;;;6232658;23;20207;-85
2024/01/26 00:45:49;;;;;;;10.40;10.10;;;5.80;99.90;;;;;;6232447;23;20203;-85
2024/01/26 00:48:16;;;;;;;10.30;10.00;;;5.80;99.90;;;;;;6231068;22;20226;-85
2024/01/26 00:50:44;;;;;;;10.30;10.00;;;5.80;99.90;;;;;;6232363;23;20191;-85
2024/01/26 00:53:11;;;;;;;10.50;10.20;;;5.80;99.90;;;;;;6231512;23;20191;-86
2024/01/26 00:55:40;;;;;;;10.50;10.20;;;5.80;99.90;;;;;;6232383;23;20298;-86
2024/01/26 00:58:07;;;;;;;10.33;10.03;;;5.90;99.90;;;;;;6230906;22;20187;-86
2024/01/26 01:00:34;;;;;;;10.80;10.50;;;5.90;99.90;;;;;;6244462;22;20206;-85
2024/01/26 01:03:02;;;;;;;10.40;10.10;;;5.80;99.90;;;;;;6249074;22;20183;-85
2024/01/26 01:05:32;;;;;;;10.70;10.40;;;5.80;99.90;;;;;;6232616;23;20199;-86
2024/01/26 01:08:00;;;;;;;10.63;10.33;;;5.80;99.90;;;;;;6230684;22;20199;-85
2024/01/26 01:10:27;;;;;;;10.30;10.00;;;5.70;99.90;;;;;;6230505;23;20194;-86
2024/01/26 01:12:57;;;;;;;10.50;10.20;;;5.70;99.90;;;;;;6230446;23;20199;-86
2024/01/26 01:15:24;;;;;;;10.23;9.93;;;5.70;99.90;;;;;;6230301;23;20187;-85
2024/01/26 01:17:52;;;;;;;10.20;9.90;;;5.70;99.90;;;;;;6230461;23;20199;-85
2024/01/26 01:20:20;;;;;;;10.47;10.17;;;5.70;99.90;;;;;;6230362;23;20262;-86
2024/01/26 01:22:50;;;;;;;10.33;10.03;;;5.70;99.90;;;;;;6230739;23;20199;-86
2024/01/26 01:25:18;;;;;;;10.10;9.80;;;5.70;99.90;;;;;;6231079;23;20253;-85
2024/01/26 01:27:45;;;;;;;10.60;10.30;;;5.60;99.90;;;;;;6231524;23;20209;-85
2024/01/26 01:30:14;;;;;;;10.43;10.13;;;5.60;99.90;;;;;;6231240;22;20533;-86
2024/01/26 01:32:41;;;;;;;10.40;10.10;;;5.60;99.90;;;;;;6231850;23;20214;-86
2024/01/26 01:35:09;;;;;;;10.40;10.10;;;5.60;99.90;;;;;;6231238;23;20238;-85
2024/01/26 01:37:36;;;;;;;10.53;10.23;;;5.60;99.90;;;;;;6237813;23;20194;-85
2024/01/26 01:40:05;;;;;;;10.20;9.90;;;5.60;99.90;;;;;;6239237;22;20203;-85
2024/01/26 01:42:32;;;;;;;10.50;10.20;;;5.70;99.90;;;;;;6236411;23;20234;-85
2024/01/26 01:45:00;;;;;;;10.40;10.10;;;5.70;99.90;;;;;;6238776;22;20242;-84
2024/01/26 01:47:29;;;;;;;10.40;10.10;;;5.80;99.90;;;;;;6248982;22;20171;-84
2024/01/26 01:49:56;;;;;;;10.30;10.00;;;5.80;99.90;;;;;;6248912;22;20182;-83
2024/01/26 01:52:27;;;;;;;10.20;9.90;;;5.80;99.90;;;;;;6249448;22;20213;-84
2024/01/26 01:54:57;;;;;;;10.20;9.90;;;5.80;99.90;;;;;;6249614;22;20179;-84
2024/01/26 01:57:26;;;;;;;10.47;10.17;;;5.80;99.90;;;;;;6249355;22;20175;-84
2024/01/26 01:59:53;;;;;;;10.10;9.80;;;5.80;99.90;;;;;;6249894;22;20182;-85
2024/01/26 02:02:23;;;;;;;10.33;10.03;;;5.80;99.90;;;;;;6247922;23;20190;-86
2024/01/26 02:04:52;;;;;;;10.27;9.97;;;5.80;99.90;;;;;;6249299;22;20183;-84
2024/01/26 02:07:20;;;;;;;10.03;9.73;;;5.80;99.90;;;;;;6250677;22;20186;-84
2024/01/26 02:09:48;;;;;;;10.30;10.00;;;5.80;99.90;;;;;;6250554;22;20250;-84
2024/01/26 02:12:16;;;;;;;10.30;10.00;;;5.80;99.90;;;;;;6250507;22;20194;-84
2024/01/26 02:14:44;;;;;;;10.10;9.80;;;5.80;99.90;;;;;;6249756;22;20179;-85
2024/01/26 02:17:11;;;;;;;10.30;10.00;;;5.80;99.90;;;;;;6250367;22;20187;-85
2024/01/26 02:19:38;;;;;;;9.90;9.60;;;5.80;99.90;;;;;;6250323;22;20186;-85
2024/01/26 02:22:07;;;;;;;10.10;9.80;;;5.80;99.90;;;;;;6249572;22;20202;-85
2024/01/26 02:24:36;;;;;;;10.10;9.80;;;5.80;99.90;;;;;;6238269;23;20191;-85
2024/01/26 02:27:04;;;;;;;10.10;9.80;;;5.80;99.90;;;;;;6236745;23;20198;-86
2024/01/26 02:29:31;;;;;;;10.07;9.77;;;5.80;99.90;;;;;;6235533;22;20202;-86
2024/01/26 02:31:58;;;;;;;10.10;9.80;;;5.80;99.90;;;;;;6235902;23;20211;-86
2024/01/26 02:34:25;;;;;;;10.13;9.83;;;5.90;99.90;;;;;;6236810;23;20218;-86
2024/01/26 02:36:53;;;;;;;10.10;9.80;;;5.80;99.90;;;;;;6237828;23;20191;-87
2024/01/26 02:39:20;;;;;;;10.20;9.90;;;5.80;99.90;;;;;;6237616;22;20199;-85
2024/01/26 02:41:49;;;;;;;10.00;9.70;;;5.90;99.90;;;;;;6238500;23;20203;-86
2024/01/26 02:44:17;;;;;;;10.07;9.77;;;5.90;99.90;;;;;;6238865;23;20194;-86
2024/01/26 02:46:47;;;;;;;9.90;9.60;;;6.00;99.90;;;;;;6242795;23;20194;-85
2024/01/26 02:49:21;;;;;;;10.10;9.80;;;6.00;99.90;;;;;;6239602;22;20203;-82
2024/01/26 02:51:49;;;;;;;10.17;9.87;;;6.00;99.90;;;;;;6232024;23;20206;-83
2024/01/26 02:54:18;;;;;;;10.13;9.83;;;6.00;99.90;;;;;;6237525;23;20245;-83
2024/01/26 02:56:45;;;;;;;9.83;9.53;;;6.10;99.90;;;;;;6242343;23;20191;-83
2024/01/26 02:59:14;;;;;;;9.83;9.53;;;6.10;99.90;;;;;;6241259;22;20203;-82
2024/01/26 03:01:42;;;;;;;10.00;9.70;;;6.10;99.90;;;;;;6234436;23;20195;-83
2024/01/26 03:04:09;;;;;;;9.80;9.50;;;6.10;99.90;;;;;;6233106;23;20230;-82
2024/01/26 03:06:36;;;;;;;9.50;9.20;;;6.10;99.90;;;;;;6232928;23;20230;-83
2024/01/26 03:09:04;;;;;;;9.83;9.53;;;6.10;99.90;;;;;;6241522;22;20199;-83
2024/01/26 03:11:39;;;;;;;10.03;9.73;;;6.20;99.90;;;;;;6246558;23;20234;-82
2024/01/26 03:14:06;;;;;;;10.10;9.80;;;6.10;99.90;;;;;;6239990;23;20198;-83
2024/01/26 03:16:39;;;;;;;10.03;9.73;;;6.20;99.90;;;;;;6234617;23;20201;-83
2024/01/26 03:19:07;;;;;;;9.80;9.50;;;6.20;99.90;;;;;;6234139;22;20199;-83
2024/01/26 03:21:34;;;;;;;9.90;9.60;;;6.20;99.90;;;;;;6243153;23;20214;-82
2024/01/26 03:24:03;;;;;;;9.90;9.60;;;6.10;99.90;;;;;;6247811;23;20202;-83
2024/01/26 03:26:30;;;;;;;9.93;9.63;;;6.10;99.90;;;;;;6247010;22;20201;-83
2024/01/26 03:28:57;;;;;;;10.10;9.80;;;6.00;99.90;;;;;;6247230;22;20222;-83
2024/01/26 03:31:27;;;;;;;9.90;9.60;;;6.00;99.90;;;;;;6246344;23;20199;-83
2024/01/26 03:34:01;;;;;;;10.00;9.70;;;6.00;99.90;;;;;;6244814;23;20191;-83
2024/01/26 03:36:29;;;;;;;9.93;9.63;;;6.00;99.90;;;;;;6238126;23;20199;-83
2024/01/26 03:39:06;;;;;;;9.83;9.53;;;6.00;99.90;;;;;;6231243;22;20223;-83
2024/01/26 03:41:33;;;;;;;10.17;9.87;;;5.90;99.90;;;;;;6230964;23;20207;-84
2024/01/26 03:44:01;;;;;;;9.80;9.50;;;5.90;99.90;;;;;;6231184;23;20195;-84
2024/01/26 03:46:31;;;;;;;10.00;9.70;;;5.90;99.90;;;;;;6230848;23;20195;-83
2024/01/26 03:49:03;;;;;;;9.93;9.63;;;5.90;99.90;;;;;;6229722;22;20205;-84
2024/01/26 03:51:31;;;;;;;10.40;10.10;;;5.90;99.90;;;;;;6230793;23;20253;-83
2024/01/26 03:53:59;;;;;;;10.13;9.83;;;5.90;99.90;;;;;;6230120;23;20255;-84
2024/01/26 03:56:26;;;;;;;10.00;9.70;;;5.90;99.90;;;;;;6230152;23;20187;-84
2024/01/26 03:58:56;;;;;;;9.80;9.50;;;5.90;99.90;;;;;;6229687;22;20207;-83
2024/01/26 04:01:23;;;;;;;10.20;9.90;;;5.90;99.90;;;;;;6229896;23;20230;-83
2024/01/26 04:03:51;;;;;;;9.97;9.67;;;5.90;99.90;;;;;;6229951;23;20198;-84
2024/01/26 04:06:20;;;;;;;9.87;9.57;;;5.90;99.90;;;;;;6229544;23;20199;-83
2024/01/26 04:08:48;;;;;;;10.17;9.87;;;5.90;99.90;;;;;;6229072;22;20274;-83
2024/01/26 04:11:15;;;;;;;9.90;9.60;;;5.90;99.90;;;;;;6229591;23;20199;-83
2024/01/26 04:13:43;;;;;;;10.10;9.80;;;6.00;99.90;;;;;;6229469;23;20265;-84
2024/01/26 04:16:10;;;;;;;10.13;9.83;;;6.00;99.90;;;;;;6229075;23;20199;-83
2024/01/26 04:18:38;;;;;;;10.17;9.87;;;6.10;99.90;;;;;;6229440;22;20250;-83
2024/01/26 04:21:08;;;;;;;10.13;9.83;;;6.10;99.90;;;;;;6229363;23;20273;-83
2024/01/26 04:23:37;;;;;;;9.73;9.43;;;6.10;99.90;;;;;;6229241;23;20198;-84
2024/01/26 04:26:07;;;;;;;9.70;9.40;;;6.20;99.90;;;;;;6229462;23;20967;-83
2024/01/26 04:28:36;;;;;;;9.73;9.43;;;6.20;99.90;;;;;;6229783;23;20199;-83
2024/01/26 04:31:07;;;;;;;9.50;9.20;;;6.30;99.90;;;;;;6228970;23;20223;-83
2024/01/26 04:33:35;;;;;;;9.60;9.30;;;6.30;99.90;;;;;;6229727;23;20206;-84
2024/01/26 04:36:10;;;;;;;9.40;9.10;;;6.40;99.90;;;;;;6229474;23;20199;-83
2024/01/26 04:38:39;;;;;;;9.40;9.10;;;6.40;99.90;;;;;;6229499;22;20232;-83
2024/01/26 04:41:07;;;;;;;9.33;9.03;;;6.40;99.90;;;;;;6229355;23;20201;-84
2024/01/26 04:43:40;;;;;;;9.87;9.57;;;6.50;99.90;;;;;;6229454;23;20209;-83
2024/01/26 04:46:11;;;;;;;9.40;9.10;;;6.40;99.90;;;;;;6229401;23;20199;-83
2024/01/26 04:48:42;;;;;;;9.27;8.97;;;6.50;99.90;;;;;;6229238;22;20274;-83
2024/01/26 04:51:09;;;;;;;9.60;9.30;;;6.50;99.90;;;;;;6236129;22;20222;-83
2024/01/26 04:53:38;;;;;;;9.77;9.47;;;6.40;99.90;;;;;;6229907;23;20221;-83
2024/01/26 04:56:06;;;;;;;9.77;9.47;;;6.40;99.90;;;;;;6230320;23;20266;-83
2024/01/26 04:58:34;;;;;;;9.73;9.43;;;6.40;99.90;;;;;;6232049;23;20203;-83
2024/01/26 05:01:01;;;;;;;9.70;9.40;;;6.50;99.90;;;;;;6234221;23;20199;-83
2024/01/26 05:03:29;;;;;;;9.70;9.40;;;6.50;99.90;;;;;;6231505;23;20254;-83
2024/01/26 05:05:56;;;;;;;9.70;9.40;;;6.50;99.90;;;;;;6229877;23;20206;-84
2024/01/26 05:08:26;;;;;;;9.50;9.20;;;6.50;99.90;;;;;;6228697;23;20198;-84
2024/01/26 05:10:55;;;;;;;9.80;9.50;;;6.50;99.90;;;;;;6228753;22;20211;-84
2024/01/26 05:13:23;;;;;;;9.70;9.40;;;6.40;99.90;;;;;;6237500;23;20195;-83
2024/01/26 05:15:50;;;;;;;9.53;9.23;;;6.40;99.90;;;;;;6231795;23;20203;-83
2024/01/26 05:18:23;;;;;;;9.50;9.20;;;6.50;99.90;;;;;;6229153;23;20202;-84
2024/01/26 05:20:52;;;;;;;9.43;9.13;;;6.40;99.90;;;;;;6232732;22;20199;-84
2024/01/26 05:23:20;;;;;;;9.47;9.17;;;6.50;99.90;;;;;;6235739;23;20222;-84
2024/01/26 05:25:48;;;;;;;9.60;9.30;;;6.50;99.90;;;;;;6237105;23;20289;-84
2024/01/26 05:28:17;;;;;;;9.67;9.37;;;6.50;99.90;;;;;;6232301;23;20195;-84
2024/01/26 05:30:45;;;;;;;9.33;9.03;;;6.50;99.90;;;;;;6230064;22;20225;-83
2024/01/26 05:33:12;;;;;;;9.40;9.10;;;6.50;99.90;;;;;;6229250;23;20217;-84
2024/01/26 05:35:44;;;;;;;9.63;9.33;;;6.50;99.90;;;;;;6227654;23;20266;-84
2024/01/26 05:38:12;;;;;;;9.53;9.23;;;6.60;99.90;;;;;;6228757;23;20190;-84
2024/01/26 05:40:40;;;;;;;9.80;9.50;;;6.60;99.90;;;;;;6228659;23;20234;-85
2024/01/26 05:43:07;;;;;;;9.97;9.67;;;6.60;99.90;;;;;;6228345;23;20226;-84
2024/01/26 05:45:36;;;;;;;9.77;9.47;;;6.60;99.90;;;;;;6228935;23;20202;-84
2024/01/26 05:48:04;;;;;;;9.77;9.47;;;6.60;99.90;;;;;;6228089;23;20226;-83
2024/01/26 05:50:32;;;;;;;10.03;9.73;;;6.70;99.90;;;;;;6230177;22;20230;-84
2024/01/26 05:53:03;;;;;;;9.40;9.10;;;6.70;99.90;;;;;;6228353;23;20253;-84
2024/01/26 05:55:30;;;;;;;9.60;9.30;;;6.80;99.90;;;;;;6228248;23;20195;-84
2024/01/26 05:58:04;;;;;;;9.57;9.27;;;6.80;99.90;;;;;;6228383;23;20302;-83
2024/01/26 06:00:32;;;;;;;9.80;9.50;;;6.80;99.90;;;;;;6228336;22;20202;-84
2024/01/26 06:03:15;;;;;;;9.60;9.30;;;6.90;99.90;;;;;;6233562;23;20194;-84
2024/01/26 06:06:00;;;;;;;9.60;9.30;;;6.90;99.90;;;;;;6232598;23;20273;-84
2024/01/26 06:08:28;;;;;;;9.77;9.47;;;6.90;99.90;;;;;;6233147;23;20198;-83
2024/01/26 06:10:57;;;;;;;9.80;9.50;;;7.00;99.90;;;;;;6231527;22;20213;-83
2024/01/26 06:13:25;;;;;;;9.47;9.17;;;7.00;99.90;;;;;;6233099;23;20206;-84
2024/01/26 06:15:52;;;;;;;9.27;8.97;;;7.00;99.90;;;;;;6231127;23;20194;-84
2024/01/26 06:18:25;;;;;;;9.60;9.30;;;7.00;99.90;;;;;;6231246;23;20222;-84
2024/01/26 06:20:53;;;;;;;9.37;9.07;;;7.00;99.90;;;;;;6229332;22;20203;-84
2024/01/26 06:23:21;;;;;;;9.50;9.20;;;7.10;99.90;;;;;;6230363;23;20203;-83
2024/01/26 06:25:49;;;;;;;9.43;9.13;;;7.10;99.90;;;;;;6233113;23;20218;-83
2024/01/26 06:28:22;;;;;;;9.60;9.30;;;7.10;99.90;;;;;;6231014;23;20198;-83
2024/01/26 06:31:05;;;;;;;9.77;9.47;;;7.10;99.90;;;;;;6235795;22;20237;-83
2024/01/26 06:33:34;;;;;;;9.63;9.33;;;7.10;99.90;;;;;;6248450;22;20278;-83
2024/01/26 06:36:02;;;;;;;9.40;9.10;;;7.20;99.90;;;;;;6247506;22;20230;-82
2024/01/26 06:38:32;;;;;;;9.50;9.20;;;7.20;99.90;;;;;;6248638;22;20210;-83
2024/01/26 06:41:04;;;;;;;9.40;9.10;;;7.20;99.90;;;;;;6235123;22;20199;-83
2024/01/26 06:43:35;;;;;;;9.90;9.60;;;7.20;99.90;;;;;;6231790;23;20262;-85
2024/01/26 06:46:12;;;;;;;9.80;9.50;;;7.30;99.90;;;;;;6232415;23;20179;-83
2024/01/26 06:48:53;;;;;;;9.90;9.60;;;7.30;99.90;;;;;;6234275;22;20191;-83
2024/01/26 06:51:32;;;;;;;9.50;9.20;;;7.30;99.90;;;;;;6054753;23;20209;-85
2024/01/26 06:54:01;;;;;;;9.57;9.27;;;7.40;99.90;;;;;;6053334;23;20250;-85
2024/01/26 06:56:36;;;;;;;9.37;9.07;;;7.40;99.90;;;;;;6052663;23;20222;-85
2024/01/26 06:59:03;;;;;;;9.13;8.83;;;7.40;99.90;;;;;;6048985;23;20203;-84
2024/01/26 07:01:31;;;;;;;9.60;9.30;;;7.50;99.90;;;;;;6048462;23;20214;-83
2024/01/26 07:04:03;;;;;;;9.43;9.13;;;7.50;99.90;;;;;;6051849;23;20251;-84
2024/01/26 07:06:34;;;;;;;9.50;9.20;;;7.50;99.90;;;;;;6052425;23;20195;-83
2024/01/26 07:09:01;;;;;;;9.43;9.13;;;7.60;99.90;;;;;;6050666;23;20207;-83
2024/01/26 07:11:29;;;;;;;9.13;8.83;;;7.60;99.90;;;;;;6050568;23;20199;-84
2024/01/26 07:13:58;;;;;;;9.30;9.00;;;7.70;99.90;;;;;;6048745;23;20215;-84
2024/01/26 07:16:28;;;;;;;9.00;8.70;;;7.70;99.90;;;;;;6050000;23;20251;-84
2024/01/26 07:19:01;;;;;;;9.20;8.90;;;7.70;99.90;;;;;;6048145;23;20207;-83
2024/01/26 07:21:31;;;;;;;9.03;8.73;;;7.80;99.90;;;;;;6047592;23;20210;-84
2024/01/26 07:24:03;;;;;;;9.00;8.70;;;7.80;99.90;;;;;;6047194;23;20195;-84
2024/01/26 07:26:41;;;;;;;8.97;8.67;;;7.70;99.90;;;;;;6052274;23;20690;-83
2024/01/26 07:29:10;;;;;;;9.17;8.87;;;7.70;99.90;;;;;;6049967;23;20203;-83
2024/01/26 07:31:38;;;;;;;9.23;8.93;;;7.70;99.90;;;;;;6048373;23;20263;-83
2024/01/26 07:34:09;;;;;;;9.10;8.80;;;7.70;99.90;;;;;;6053529;22;20203;-82
2024/01/26 07:36:37;;;;;;;9.00;8.70;;;7.80;99.90;;;;;;6050615;22;20222;-83
2024/01/26 07:39:05;;;;;;;9.07;8.77;;;7.80;99.90;;;;;;6047576;23;20231;-83
2024/01/26 07:41:39;;;;;;;8.73;8.50;;;7.90;99.90;;;;;;6052333;23;20203;-82
2024/01/26 07:44:10;;;;;;;8.50;8.30;;;7.90;99.90;;;;;;6052967;23;20197;-84
2024/01/26 07:46:41;;;;;;;8.57;8.37;;;7.90;99.90;;;;;;6051325;23;20191;-84
2024/01/26 07:49:10;;;;;;;8.60;8.40;;;7.90;99.90;;;;;;6073030;22;20206;-84
2024/01/26 07:51:40;;;;;;;9.00;8.70;;;7.90;99.90;;;;;;6232343;23;20201;-84
2024/01/26 07:54:13;;;;;;;8.47;8.27;;;8.00;99.90;;;;;;6236802;23;20259;-83
2024/01/26 07:56:42;;;;;;;8.50;8.30;;;8.10;99.90;;;;;;6235990;23;20234;-83
2024/01/26 07:59:10;;;;;;;8.70;8.50;;;8.10;99.90;;;;;;6231447;22;20195;-83
2024/01/26 08:01:37;;;;;;;8.50;8.30;;;8.10;99.90;;;;;;6230002;23;20273;-82
2024/01/26 08:04:05;;;;;;;8.57;8.37;;;8.10;99.90;;;;;;6229761;23;20277;-83
2024/01/26 08:06:34;;;;;;;8.50;8.30;;;8.10;99.90;;;;;;6229543;23;20190;-83
2024/01/26 08:09:02;;;;;;;8.40;8.20;;;8.10;99.90;;;;;;6229826;22;20398;-83
2024/01/26 08:11:29;;;;;;;8.50;8.30;;;8.20;99.90;;;;;;6230555;23;20207;-82
2024/01/26 08:13:58;;;;;;;8.40;8.20;;;8.30;99.90;;;;;;6230433;23;20208;-82
2024/01/26 08:16:26;;;;;;;8.40;8.20;;;8.30;99.90;;;;;;6230156;23;20297;-83
2024/01/26 08:18:56;;;;;;;8.60;8.40;;;8.30;99.90;;;;;;6229861;22;20199;-82
2024/01/26 08:21:24;;;;;;;8.40;8.20;;;8.30;99.90;;;;;;6230374;23;20202;-82
2024/01/26 08:23:53;;;;;;;8.40;8.20;;;8.30;99.90;;;;;;6230319;23;20195;-82
2024/01/26 08:26:20;;;;;;;8.30;8.10;;;8.40;99.90;;;;;;6230542;23;20202;-83
2024/01/26 08:28:48;;;;;;;8.30;8.10;;;8.40;99.90;;;;;;6230791;22;20214;-82
2024/01/26 08:31:16;;;;;;;8.40;8.20;;;8.50;99.90;;;;;;6230555;23;20211;-82
2024/01/26 08:33:44;;;;;;;8.60;8.40;;;8.60;99.90;;;;;;6230401;23;20206;-82
2024/01/26 08:36:17;;;;;;;8.40;8.20;;;8.70;99.90;;;;;;6229943;23;20210;-82
2024/01/26 08:38:45;;;;;;;8.17;7.97;;;8.80;99.90;;;;;;6230545;22;20194;-82
2024/01/26 08:41:16;;;;;;;7.83;7.63;;;8.90;99.90;;;;;;6230057;23;20262;-81
2024/01/26 08:43:44;;;;;;;8.23;8.03;;;8.90;99.90;;;;;;6230184;23;21030;-82
2024/01/26 08:46:12;;;;;;;8.13;7.93;;;9.00;99.90;;;;;;6232236;23;20199;-82
2024/01/26 08:48:39;;;;;;;8.43;8.23;;;9.10;99.90;;;;;;6232062;22;20249;-82
2024/01/26 08:51:06;;;;;;;8.20;8.00;;;9.20;99.90;;;;;;6227008;22;21137;-85
2024/01/26 08:53:34;;;;;;;8.30;8.10;;;9.20;99.90;;;;;;6229896;23;20229;-85
2024/01/26 08:56:05;;;;;;;8.80;8.60;;;9.20;99.90;;;;;;6232642;23;20262;-84
2024/01/26 08:58:33;;;;;;;8.70;8.50;;;9.30;99.90;;;;;;6234053;23;20191;-85
2024/01/26 09:01:01;;;;;;;8.43;8.23;;;9.40;99.90;;;;;;6233198;22;20207;-85
2024/01/26 09:03:28;;;;;;;8.83;8.57;;;9.40;99.90;;;;;;6233821;23;20191;-85
2024/01/26 09:05:55;;;;;;;9.17;8.87;;;9.40;99.90;;;;;;6234089;23;20190;-85
2024/01/26 09:08:22;;;;;;;9.03;8.73;;;9.40;99.90;;;;;;6233649;23;20226;-85
2024/01/26 09:10:50;;;;;;;9.20;8.90;;;9.40;99.90;;;;;;6233489;22;20261;-85
2024/01/26 09:13:17;;;;;;;9.20;8.90;;;9.50;99.90;;;;;;6233406;23;20202;-84
2024/01/26 09:15:46;;;;;;;9.13;8.83;;;9.40;99.90;;;;;;6234014;23;20194;-85
2024/01/26 09:18:13;;;;;;;8.77;8.50;;;9.50;99.90;;;;;;6234299;23;20226;-84
2024/01/26 09:20:41;;;;;;;9.20;8.90;;;9.50;99.90;;;;;;6234256;22;20211;-85
2024/01/26 09:23:08;;;;;;;8.80;8.50;;;9.40;99.90;;;;;;6234281;23;20250;-85
2024/01/26 09:25:36;;;;;;;9.17;8.87;;;9.40;99.90;;;;;;6235506;23;20210;-85
2024/01/26 09:28:03;;;;;;;9.20;8.90;;;9.50;99.90;;;;;;6239157;23;20199;-85
2024/01/26 09:30:31;;;;;;;9.20;8.90;;;9.50;99.90;;;;;;6237460;22;20198;-85
2024/01/26 09:32:59;;;;;;;9.00;8.70;;;9.50;99.90;;;;;;6234936;23;20226;-85
2024/01/26 09:35:27;;;;;;;8.90;8.60;;;9.50;99.90;;;;;;6234643;23;20210;-85
2024/01/26 09:37:54;;;;;;;8.87;8.57;;;9.50;99.90;;;;;;6234302;23;20203;-85
2024/01/26 09:40:24;;;;;;;9.13;8.83;;;9.60;99.90;;;;;;6233740;22;20229;-85
2024/01/26 09:42:52;;;;;;;9.10;8.80;;;9.60;99.90;;;;;;6231949;23;20205;-85
2024/01/26 09:45:22;;;;;;;8.90;8.60;;;9.60;99.90;;;;;;6232514;23;20194;-84
2024/01/26 09:47:52;;;;;;;8.83;8.57;;;9.60;99.90;;;;;;6232033;23;20213;-85
2024/01/26 09:50:22;;;;;;;8.63;8.43;;;9.70;99.90;;;;;;6234829;22;20230;-85
2024/01/26 09:52:51;;;;;;;8.70;8.50;;;9.70;99.90;;;;;;6233003;23;20245;-85
2024/01/26 09:55:20;;;;;;;8.60;8.40;;;9.80;99.90;;;;;;6233796;23;20210;-84
2024/01/26 09:57:49;;;;;;;8.93;8.63;;;9.80;99.90;;;;;;6233701;23;20278;-85
2024/01/26 10:00:17;;;;;;;9.40;9.10;;;9.90;99.90;;;;;;6233672;22;20203;-85
2024/01/26 10:02:44;;;;;;;9.27;8.97;;;9.90;99.90;;;;;;6238706;22;20531;-83
2024/01/26 10:05:14;;;;;;;9.90;9.60;;;9.90;99.90;;;;;;6249307;22;20226;-84
2024/01/26 10:07:44;;;;;;;9.53;9.23;;;9.90;99.90;;;;;;6249153;22;20206;-84
2024/01/26 10:10:12;;;;;;;9.20;8.90;;;9.90;99.90;;;;;;6247615;22;20187;-84
2024/01/26 10:12:39;;;;;;;9.50;9.20;;;9.90;99.90;;;;;;6247379;23;20199;-84
2024/01/26 10:15:10;;;;;;;9.00;8.70;;;9.90;99.90;;;;;;6248681;22;20175;-83
2024/01/26 10:17:37;;;;;;;9.50;9.20;;;9.90;99.90;;;;;;6249120;22;20186;-83
2024/01/26 10:20:14;;;;;;;9.50;9.20;;;9.90;99.90;;;;;;6248965;22;20206;-84
2024/01/26 10:22:44;;;;;;;9.17;8.87;;;10.00;99.90;;;;;;6250502;22;20194;-83
2024/01/26 10:25:11;;;;;;;9.50;9.20;;;10.00;99.90;;;;;;6250696;22;20178;-84
2024/01/26 10:27:39;;;;;;;9.80;9.50;;;10.10;99.90;;;;;;6249743;22;20243;-84
2024/01/26 10:30:08;;;;;;;9.37;9.07;;;10.20;99.90;;;;;;6250278;22;20271;-84
2024/01/26 10:32:36;;;;;;;9.97;9.67;;;10.30;99.90;;;;;;6250295;22;20191;-84
2024/01/26 10:35:05;;;;;;;9.50;9.20;;;10.40;99.90;;;;;;6249918;22;20187;-85
2024/01/26 10:37:34;;;;;;;9.90;9.60;;;10.50;99.90;;;;;;6249109;22;20225;-85
2024/01/26 10:40:05;;;;;;;9.83;9.53;;;10.50;99.90;;;;;;6236917;22;20234;-85
2024/01/26 10:42:32;;;;;;;9.97;9.67;;;10.50;99.90;;;;;;6234760;23;20237;-85
2024/01/26 10:45:03;;;;;;;10.17;9.87;;;10.40;99.90;;;;;;6232913;23;20283;-85
2024/01/26 10:47:33;;;;;;;10.20;9.90;;;10.40;99.90;;;;;;6234349;23;20202;-85
2024/01/26 10:50:05;;;;;;;10.00;9.70;;;10.40;99.90;;;;;;6233766;22;20203;-85
2024/01/26 10:52:37;;;;;;;10.20;9.90;;;10.40;99.90;;;;;;6233474;23;20191;-85
2024/01/26 10:55:07;;;;;;;10.03;9.73;;;10.40;99.90;;;;;;6233457;23;20238;-86
2024/01/26 10:57:35;;;;;;;10.10;9.80;;;10.40;99.90;;;;;;6233210;23;20291;-85
2024/01/26 11:00:04;;;;;;;10.30;10.00;;;10.40;99.90;;;;;;6233236;22;20203;-86
2024/01/26 11:02:36;;;;;;;10.00;9.70;;;10.40;99.90;;;;;;6233464;23;20210;-86
2024/01/26 11:05:07;;;;;;;10.10;9.80;;;10.40;99.90;;;;;;6233115;23;20183;-85
2024/01/26 11:07:35;;;;;;;9.87;9.57;;;10.40;99.90;;;;;;6231607;23;20203;-86
2024/01/26 11:10:10;;;;;;;10.10;9.80;;;10.40;99.90;;;;;;6233180;22;20199;-86
2024/01/26 11:12:39;;;;;;;10.00;9.70;;;10.40;99.90;;;;;;6206794;23;20197;-85
2024/01/26 11:15:13;;;;;;;10.00;9.70;;;10.40;99.90;;;;;;6234416;23;20207;-86
2024/01/26 11:17:51;;;;;;;10.10;9.80;;;10.40;99.90;;;;;;6233645;23;21013;-85
2024/01/26 11:20:25;;;;;;;10.37;10.07;;;10.40;99.90;;;;;;6233752;22;20202;-86
2024/01/26 11:23:03;;;;;;;10.20;9.90;;;10.40;99.90;;;;;;6233731;23;20187;-86
2024/01/26 11:25:37;;;;;;;9.90;9.60;;;10.30;99.90;;;;;;6234368;23;20195;-84
2024/01/26 11:28:06;;;;;;;9.83;9.53;;;10.30;99.90;;;;;;6234282;23;20191;-86
2024/01/26 11:30:34;;;;;;;9.80;9.50;;;10.40;99.90;;;;;;6233669;22;20210;-85
2024/01/26 11:33:03;;;;;;;9.60;9.30;;;10.30;99.90;;;;;;6233184;23;20187;-85
2024/01/26 11:35:30;;;;;;;10.00;9.70;;;10.30;99.90;;;;;;6233836;23;20214;-86
2024/01/26 11:37:58;;;;;;;9.57;9.27;;;10.30;99.90;;;;;;6234668;23;20191;-85
2024/01/26 11:40:25;;;;;;;9.83;9.53;;;10.20;99.90;;;;;;6237637;22;20210;-85
2024/01/26 11:42:54;;;;;;;9.70;9.40;;;10.20;99.90;;;;;;6243949;23;20179;-85
2024/01/26 11:45:42;;;;;;;9.80;9.50;;;10.10;99.90;;;;;;6236060;23;20202;-86
2024/01/26 11:48:11;;;;;;;9.60;9.30;;;10.10;99.90;;;;;;6235120;23;20186;-85
2024/01/26 11:50:42;;;;;;;9.30;9.00;;;10.10;99.90;;;;;;6235850;22;20258;-84
2024/01/26 11:53:10;;;;;;;9.50;9.20;;;10.10;99.90;;;;;;6236007;23;20578;-84
2024/01/26 11:55:38;;;;;;;9.30;9.00;;;10.00;99.90;;;;;;6246149;23;20206;-85
2024/01/26 11:58:08;;;;;;;9.00;8.70;;;10.00;99.90;;;;;;6245587;23;20210;-84
2024/01/26 12:00:36;;;;;;;9.07;8.77;;;9.90;99.90;;;;;;6246436;22;20316;-85
2024/01/26 12:03:07;;;;;;;8.83;8.57;;;9.90;99.90;;;;;;6240152;23;20195;-86
2024/01/26 12:05:35;;;;;;;8.50;8.30;;;9.90;99.90;;;;;;6238518;23;20185;-85
2024/01/26 12:08:05;;;;;;;8.30;8.10;;;9.90;99.90;;;;;;6237582;23;20204;-85
2024/01/26 12:10:32;;;;;;;8.20;8.00;;;9.80;99.90;;;;;;6243268;22;20183;-85
2024/01/26 12:13:00;;;;;;;8.07;7.87;;;9.80;99.90;;;;;;6232201;23;20207;-85
2024/01/26 12:15:31;;;;;;;7.83;7.63;;;9.80;99.90;;;;;;6233907;23;20203;-85
2024/01/26 12:18:00;;;;;;;7.90;7.70;;;9.80;99.90;;;;;;6236809;23;20195;-85
2024/01/26 12:20:27;;;;;;;7.63;7.43;;;9.70;99.90;;;;;;6236385;22;20230;-85
2024/01/26 12:22:55;;;;;;;7.30;7.10;;;9.70;99.90;;;;;;6236504;23;20230;-85
2024/01/26 12:25:27;;;;;;;7.70;7.50;;;9.70;99.90;;;;;;6236875;23;20195;-86
2024/01/26 12:27:54;;;;;;;7.60;7.40;;;9.80;99.90;;;;;;6237218;23;20203;-85
2024/01/26 12:30:22;;;;;;;7.30;7.10;;;9.80;99.90;;;;;;6237240;22;20199;-86
2024/01/26 12:32:51;;;;;;;7.43;7.23;;;9.70;99.90;;;;;;6237734;23;20202;-84
2024/01/26 12:35:18;;;;;;;7.63;7.43;;;9.80;99.90;;;;;;6235531;23;20211;-84
2024/01/26 12:37:46;;;;;;;7.70;7.50;;;9.70;99.90;;;;;;6233857;23;20218;-85
2024/01/26 12:40:13;;;;;;;7.97;7.77;;;9.70;99.90;;;;;;6232504;22;20214;-84
2024/01/26 12:42:42;;;;;;;7.90;7.70;;;9.70;99.90;;;;;;6232626;23;20191;-85
2024/01/26 12:45:10;;;;;;;7.97;7.77;;;9.70;99.90;;;;;;6233239;23;20231;-85
2024/01/26 12:47:37;;;;;;;8.17;7.97;;;9.70;99.90;;;;;;6233660;23;20207;-85
2024/01/26 12:50:08;;;;;;;8.00;7.80;;;9.70;99.90;;;;;;6233507;22;20207;-83
2024/01/26 12:52:35;;;;;;;8.07;7.87;;;9.70;99.90;;;;;;6234839;23;20198;-85
2024/01/26 12:55:03;;;;;;;8.20;8.00;;;9.70;99.90;;;;;;6236018;23;20218;-84
2024/01/26 12:57:30;;;;;;;8.10;7.90;;;9.70;99.90;;;;;;6234957;23;20209;-84
2024/01/26 12:59:57;;;;;;;8.17;7.97;;;9.70;99.90;;;;;;6234358;22;20736;-85